sensor_id;sensor_type;location;lat;lon;timestamp;pressure;altitude;pressure_sealevel;temperature;humidity
74218;BME280;62579;47.288;18.646;2024-03-02T00:01:10;99231.06;;;9.37;100.00
74218;BME280;62579;47.288;18.646;2024-03-02T00:03:37;99238.00;;;9.38;100.00
74218;BME280;62579;47.288;18.646;2024-03-02T00:06:03;99238.69;;;9.44;100.00
74218;BME280;62579;47.288;18.646;2024-03-02T00:08:29;99232.81;;;9.34;100.00
74218;BME280;62579;47.288;18.646;2024-03-02T00:10:59;99233.03;;;9.36;100.00
74218;BME280;62579;47.288;18.646;2024-03-02T00:13:25;99236.03;;;9.33;100.00
74218;BME280;62579;47.288;18.646;2024-03-02T00:15:55;99214.09;;;9.25;100.00
74218;BME280;62579;47.288;18.646;2024-03-02T00:20:46;99218.28;;;9.26;100.00
74218;BME280;62579;47.288;18.646;2024-03-02T00:23:15;99213.63;;;9.21;100.00
74218;BME280;62579;47.288;18.646;2024-03-02T00:28:31;99215.59;;;9.21;100.00
74218;BME280;62579;47.288;18.646;2024-03-02T00:31:10;99224.50;;;9.21;100.00
74218;BME280;62579;47.288;18.646;2024-03-02T00:33:46;99219.56;;;9.20;100.00
74218;BME280;62579;47.288;18.646;2024-03-02T00:36:13;99219.09;;;9.16;100.00
74218;BME280;62579;47.288;18.646;2024-03-02T00:38:46;99219.38;;;9.06;100.00
74218;BME280;62579;47.288;18.646;2024-03-02T00:41:16;99227.06;;;9.02;100.00
74218;BME280;62579;47.288;18.646;2024-03-02T00:44:02;99214.97;;;9.03;100.00
74218;BME280;62579;47.288;18.646;2024-03-02T00:46:31;99209.25;;;9.07;100.00
74218;BME280;62579;47.288;18.646;2024-03-02T00:48:59;99210.53;;;9.00;100.00
74218;BME280;62579;47.288;18.646;2024-03-02T00:51:28;99218.94;;;8.91;100.00
74218;BME280;62579;47.288;18.646;2024-03-02T00:53:57;99215.06;;;8.81;100.00
74218;BME280;62579;47.288;18.646;2024-03-02T00:56:24;99209.63;;;8.81;100.00
74218;BME280;62579;47.288;18.646;2024-03-02T00:58:49;99205.63;;;8.88;100.00
74218;BME280;62579;47.288;18.646;2024-03-02T01:01:15;99206.88;;;8.87;100.00
74218;BME280;62579;47.288;18.646;2024-03-02T01:03:41;99198.00;;;8.86;100.00
74218;BME280;62579;47.288;18.646;2024-03-02T01:06:07;99198.78;;;8.76;100.00
74218;BME280;62579;47.288;18.646;2024-03-02T01:08:34;99197.59;;;8.71;100.00
74218;BME280;62579;47.288;18.646;2024-03-02T01:10:59;99201.50;;;8.76;100.00
74218;BME280;62579;47.288;18.646;2024-03-02T01:13:25;99203.19;;;8.90;100.00
74218;BME280;62579;47.288;18.646;2024-03-02T01:15:50;99207.87;;;8.89;100.00
74218;BME280;62579;47.288;18.646;2024-03-02T01:18:15;99206.63;;;8.85;100.00
74218;BME280;62579;47.288;18.646;2024-03-02T01:20:41;99212.53;;;8.94;100.00
74218;BME280;62579;47.288;18.646;2024-03-02T01:23:06;99209.34;;;8.85;100.00
74218;BME280;62579;47.288;18.646;2024-03-02T01:25:32;99194.13;;;8.65;100.00
74218;BME280;62579;47.288;18.646;2024-03-02T01:27:57;99204.44;;;8.78;100.00
74218;BME280;62579;47.288;18.646;2024-03-02T01:30:22;99207.41;;;8.80;100.00
74218;BME280;62579;47.288;18.646;2024-03-02T01:32:48;99208.13;;;8.80;100.00
74218;BME280;62579;47.288;18.646;2024-03-02T01:35:13;99211.09;;;8.77;100.00
74218;BME280;62579;47.288;18.646;2024-03-02T01:37:40;99222.97;;;8.79;100.00
74218;BME280;62579;47.288;18.646;2024-03-02T01:40:06;99211.34;;;8.79;100.00
74218;BME280;62579;47.288;18.646;2024-03-02T01:42:38;99207.41;;;8.80;100.00
74218;BME280;62579;47.288;18.646;2024-03-02T01:45:08;99210.09;;;8.80;100.00
74218;BME280;62579;47.288;18.646;2024-03-02T01:47:34;99204.69;;;8.80;100.00
74218;BME280;62579;47.288;18.646;2024-03-02T01:49:59;99202.47;;;8.78;100.00
74218;BME280;62579;47.288;18.646;2024-03-02T01:52:25;99204.94;;;8.82;100.00
74218;BME280;62579;47.288;18.646;2024-03-02T01:54:50;99194.56;;;8.80;100.00
74218;BME280;62579;47.288;18.646;2024-03-02T01:57:16;99201.50;;;8.76;100.00
74218;BME280;62579;47.288;18.646;2024-03-02T01:59:42;99190.88;;;8.78;100.00
74218;BME280;62579;47.288;18.646;2024-03-02T02:02:07;99188.69;;;8.76;100.00
74218;BME280;62579;47.288;18.646;2024-03-02T02:04:33;99195.34;;;8.75;100.00
74218;BME280;62579;47.288;18.646;2024-03-02T02:06:59;99188.44;;;8.69;100.00
74218;BME280;62579;47.288;18.646;2024-03-02T02:09:24;99202.75;;;8.69;100.00
74218;BME280;62579;47.288;18.646;2024-03-02T02:11:50;99186.25;;;8.67;100.00
74218;BME280;62579;47.288;18.646;2024-03-02T02:14:16;99192.41;;;8.68;100.00
74218;BME280;62579;47.288;18.646;2024-03-02T02:16:41;99191.66;;;8.67;100.00
74218;BME280;62579;47.288;18.646;2024-03-02T02:19:06;99199.06;;;8.67;100.00
74218;BME280;62579;47.288;18.646;2024-03-02T02:21:32;99208.44;;;8.66;100.00
74218;BME280;62579;47.288;18.646;2024-03-02T02:23:57;99200.03;;;8.64;100.00
74218;BME280;62579;47.288;18.646;2024-03-02T02:26:22;99213.16;;;8.60;100.00
74218;BME280;62579;47.288;18.646;2024-03-02T02:28:48;99211.66;;;8.59;100.00
74218;BME280;62579;47.288;18.646;2024-03-02T02:31:13;99218.34;;;8.58;100.00
74218;BME280;62579;47.288;18.646;2024-03-02T02:33:42;99220.34;;;8.40;100.00
74218;BME280;62579;47.288;18.646;2024-03-02T02:36:08;99216.13;;;8.39;100.00
74218;BME280;62579;47.288;18.646;2024-03-02T02:38:38;99209.94;;;8.50;100.00
74218;BME280;62579;47.288;18.646;2024-03-02T02:41:04;99211.66;;;8.53;100.00
74218;BME280;62579;47.288;18.646;2024-03-02T02:43:29;99217.84;;;8.54;100.00
74218;BME280;62579;47.288;18.646;2024-03-02T02:45:54;99234.62;;;8.41;100.00
74218;BME280;62579;47.288;18.646;2024-03-02T02:48:20;99235.38;;;8.30;100.00
74218;BME280;62579;47.288;18.646;2024-03-02T02:50:45;99231.16;;;8.46;100.00
74218;BME280;62579;47.288;18.646;2024-03-02T02:53:11;99216.63;;;8.49;100.00
74218;BME280;62579;47.288;18.646;2024-03-02T02:55:36;99220.31;;;8.52;100.00
74218;BME280;62579;47.288;18.646;2024-03-02T02:58:06;99218.59;;;8.54;100.00
74218;BME280;62579;47.288;18.646;2024-03-02T03:00:31;99213.16;;;8.54;100.00
74218;BME280;62579;47.288;18.646;2024-03-02T03:02:56;99216.59;;;8.55;100.00
74218;BME280;62579;47.288;18.646;2024-03-02T03:05:22;99214.38;;;8.53;100.00
74218;BME280;62579;47.288;18.646;2024-03-02T03:07:47;99208.22;;;8.53;100.00
74218;BME280;62579;47.288;18.646;2024-03-02T03:10:15;99199.84;;;8.56;100.00
74218;BME280;62579;47.288;18.646;2024-03-02T03:12:41;99198.59;;;8.57;100.00
74218;BME280;62579;47.288;18.646;2024-03-02T03:15:08;99196.62;;;8.58;100.00
74218;BME280;62579;47.288;18.646;2024-03-02T03:17:34;99193.94;;;8.58;100.00
74218;BME280;62579;47.288;18.646;2024-03-02T03:20:01;99199.84;;;8.56;100.00
74218;BME280;62579;47.288;18.646;2024-03-02T03:22:26;99212.19;;;8.46;100.00
74218;BME280;62579;47.288;18.646;2024-03-02T03:24:52;99208.50;;;8.49;100.00
74218;BME280;62579;47.288;18.646;2024-03-02T03:27:17;99215.63;;;8.52;100.00
74218;BME280;62579;47.288;18.646;2024-03-02T03:29:43;99217.59;;;8.52;100.00
74218;BME280;62579;47.288;18.646;2024-03-02T03:32:08;99217.59;;;8.52;100.00
74218;BME280;62579;47.288;18.646;2024-03-02T03:34:34;99214.38;;;8.53;100.00
74218;BME280;62579;47.288;18.646;2024-03-02T03:36:59;99223.50;;;8.56;100.00
74218;BME280;62579;47.288;18.646;2024-03-02T03:39:25;99214.63;;;8.55;100.00
74218;BME280;62579;47.288;18.646;2024-03-02T03:41:50;99213.91;;;8.55;100.00
74218;BME280;62579;47.288;18.646;2024-03-02T03:44:16;99215.34;;;8.56;100.00
74218;BME280;62579;47.288;18.646;2024-03-02T03:46:41;99215.34;;;8.56;100.00
74218;BME280;62579;47.288;18.646;2024-03-02T03:49:06;99211.41;;;8.57;100.00
74218;BME280;62579;47.288;18.646;2024-03-02T03:51:33;99219.06;;;8.58;100.00
74218;BME280;62579;47.288;18.646;2024-03-02T03:53:58;99213.63;;;8.58;100.00
74218;BME280;62579;47.288;18.646;2024-03-02T03:56:23;99209.44;;;8.57;100.00
74218;BME280;62579;47.288;18.646;2024-03-02T03:58:49;99215.84;;;8.60;100.00
74218;BME280;62579;47.288;18.646;2024-03-02T04:01:14;99223.75;;;8.63;100.00
74218;BME280;62579;47.288;18.646;2024-03-02T04:03:39;99222.75;;;8.61;100.00
74218;BME280;62579;47.288;18.646;2024-03-02T04:06:05;99226.72;;;8.49;100.00
74218;BME280;62579;47.288;18.646;2024-03-02T04:08:30;99229.91;;;8.53;100.00
74218;BME280;62579;47.288;18.646;2024-03-02T04:10:55;99235.31;;;8.58;100.00
74218;BME280;62579;47.288;18.646;2024-03-02T04:13:21;99235.09;;;8.56;100.00
74218;BME280;62579;47.288;18.646;2024-03-02T04:15:46;99228.69;;;8.48;100.00
74218;BME280;62579;47.288;18.646;2024-03-02T04:18:12;99227.72;;;8.45;100.00
74218;BME280;62579;47.288;18.646;2024-03-02T04:20:37;99230.16;;;8.55;100.00
74218;BME280;62579;47.288;18.646;2024-03-02T04:23:02;99236.56;;;8.57;100.00
74218;BME280;62579;47.288;18.646;2024-03-02T04:25:28;99241.50;;;8.59;100.00
74218;BME280;62579;47.288;18.646;2024-03-02T04:27:53;99241.50;;;8.59;100.00
74218;BME280;62579;47.288;18.646;2024-03-02T04:30:18;99244.72;;;8.46;100.00
74218;BME280;62579;47.288;18.646;2024-03-02T04:32:44;99243.00;;;8.49;100.00
74218;BME280;62579;47.288;18.646;2024-03-02T04:35:12;99241.28;;;8.45;100.00
74218;BME280;62579;47.288;18.646;2024-03-02T04:37:38;99247.19;;;8.44;100.00
74218;BME280;62579;47.288;18.646;2024-03-02T04:40:04;99250.41;;;8.42;100.00
74218;BME280;62579;47.288;18.646;2024-03-02T04:42:33;99248.19;;;8.41;100.00
74218;BME280;62579;47.288;18.646;2024-03-02T04:44:59;99243.00;;;8.49;100.00
74218;BME280;62579;47.288;18.646;2024-03-02T04:47:24;99245.47;;;8.52;100.00
74218;BME280;62579;47.288;18.646;2024-03-02T04:49:49;99249.16;;;8.49;100.00
74218;BME280;62579;47.288;18.646;2024-03-02T04:52:16;99251.88;;;8.55;100.00
74218;BME280;62579;47.288;18.646;2024-03-02T04:54:41;99252.09;;;8.57;100.00
74218;BME280;62579;47.288;18.646;2024-03-02T04:57:25;99257.53;;;8.57;100.00
74218;BME280;62579;47.288;18.646;2024-03-02T04:59:51;99257.03;;;8.58;100.00
74218;BME280;62579;47.288;18.646;2024-03-02T05:02:16;99253.81;;;8.60;100.00
74218;BME280;62579;47.288;18.646;2024-03-02T05:04:41;99261.72;;;8.58;100.00
74218;BME280;62579;47.288;18.646;2024-03-02T05:07:07;99257.28;;;8.60;100.00
74218;BME280;62579;47.288;18.646;2024-03-02T05:09:32;99263.94;;;8.59;100.00
74218;BME280;62579;47.288;18.646;2024-03-02T05:11:58;99258.75;;;8.61;100.00
74218;BME280;62579;47.288;18.646;2024-03-02T05:14:42;99252.56;;;8.61;100.00
74218;BME280;62579;47.288;18.646;2024-03-02T05:17:07;99248.16;;;8.63;100.00
74218;BME280;62579;47.288;18.646;2024-03-02T05:19:32;99259.72;;;8.64;100.00
74218;BME280;62579;47.288;18.646;2024-03-02T05:21:58;99258.75;;;8.61;100.00
74218;BME280;62579;47.288;18.646;2024-03-02T05:24:23;99262.94;;;8.62;100.00
74218;BME280;62579;47.288;18.646;2024-03-02T05:26:49;99263.69;;;8.57;100.00
74218;BME280;62579;47.288;18.646;2024-03-02T05:29:14;99260.50;;;8.48;100.00
74218;BME280;62579;47.288;18.646;2024-03-02T05:31:40;99264.91;;;8.56;100.00
74218;BME280;62579;47.288;18.646;2024-03-02T05:34:05;99264.19;;;8.56;100.00
74218;BME280;62579;47.288;18.646;2024-03-02T05:36:31;99267.41;;;8.54;100.00
74218;BME280;62579;47.288;18.646;2024-03-02T05:38:57;99263.69;;;8.57;100.00
74218;BME280;62579;47.288;18.646;2024-03-02T05:41:22;99258.28;;;8.57;100.00
74218;BME280;62579;47.288;18.646;2024-03-02T05:43:47;99263.94;;;8.54;100.00
74218;BME280;62579;47.288;18.646;2024-03-02T05:46:13;99264.94;;;8.39;100.00
74218;BME280;62579;47.288;18.646;2024-03-02T05:48:38;99267.41;;;8.43;100.00
74218;BME280;62579;47.288;18.646;2024-03-02T05:51:03;99271.84;;;8.35;100.00
74218;BME280;62579;47.288;18.646;2024-03-02T05:53:29;99280.97;;;8.49;100.00
74218;BME280;62579;47.288;18.646;2024-03-02T05:55:54;99278.50;;;8.39;100.00
74218;BME280;62579;47.288;18.646;2024-03-02T05:58:21;99288.12;;;8.35;100.00
74218;BME280;62579;47.288;18.646;2024-03-02T06:01:02;99288.12;;;8.35;100.00
74218;BME280;62579;47.288;18.646;2024-03-02T06:03:28;99291.56;;;8.30;100.00
74218;BME280;62579;47.288;18.646;2024-03-02T06:05:54;99294.03;;;8.33;100.00
74218;BME280;62579;47.288;18.646;2024-03-02T06:08:20;99296.50;;;8.37;100.00
74218;BME280;62579;47.288;18.646;2024-03-02T06:10:45;99290.31;;;8.48;100.00
74218;BME280;62579;47.288;18.646;2024-03-02T06:13:11;99298.44;;;8.53;100.00
74218;BME280;62579;47.288;18.646;2024-03-02T06:15:36;99295.97;;;8.61;100.00
74218;BME280;62579;47.288;18.646;2024-03-02T06:18:02;99299.19;;;8.48;100.00
74218;BME280;62579;47.288;18.646;2024-03-02T06:20:27;99297.97;;;8.55;100.00
74218;BME280;62579;47.288;18.646;2024-03-02T06:22:52;99293.75;;;8.59;100.00
74218;BME280;62579;47.288;18.646;2024-03-02T06:25:18;99293.03;;;8.53;100.00
74218;BME280;62579;47.288;18.646;2024-03-02T06:27:43;99301.44;;;8.50;100.00
74218;BME280;62579;47.288;18.646;2024-03-02T06:30:09;99307.34;;;8.42;100.00
74218;BME280;62579;47.288;18.646;2024-03-02T06:32:34;99309.31;;;8.48;100.00
74218;BME280;62579;47.288;18.646;2024-03-02T06:34:59;99309.31;;;8.48;100.00
74218;BME280;62579;47.288;18.646;2024-03-02T06:37:25;99305.59;;;8.51;100.00
74218;BME280;62579;47.288;18.646;2024-03-02T06:39:50;99308.81;;;8.43;100.00
74218;BME280;62579;47.288;18.646;2024-03-02T06:42:15;99305.59;;;8.39;100.00
74218;BME280;62579;47.288;18.646;2024-03-02T06:44:41;99308.81;;;8.49;100.00
74218;BME280;62579;47.288;18.646;2024-03-02T06:47:06;99319.41;;;8.53;100.00
74218;BME280;62579;47.288;18.646;2024-03-02T06:49:31;99308.06;;;8.54;100.00
74218;BME280;62579;47.288;18.646;2024-03-02T06:51:57;99314.25;;;8.55;100.00
74218;BME280;62579;47.288;18.646;2024-03-02T06:54:22;99306.59;;;8.59;100.00
74218;BME280;62579;47.288;18.646;2024-03-02T06:56:47;99315.69;;;8.67;100.00
74218;BME280;62579;47.288;18.646;2024-03-02T06:59:13;99315.47;;;8.59;100.00
74218;BME280;62579;47.288;18.646;2024-03-02T07:01:38;99318.91;;;8.65;100.00
74218;BME280;62579;47.288;18.646;2024-03-02T07:04:03;99317.19;;;8.62;100.00
74218;BME280;62579;47.288;18.646;2024-03-02T07:06:31;99307.78;;;8.69;100.00
74218;BME280;62579;47.288;18.646;2024-03-02T07:08:57;99324.09;;;8.63;100.00
74218;BME280;62579;47.288;18.646;2024-03-02T07:11:22;99311.53;;;8.66;100.00
74218;BME280;62579;47.288;18.646;2024-03-02T07:13:47;99324.34;;;8.65;100.00
74218;BME280;62579;47.288;18.646;2024-03-02T07:16:13;99321.13;;;8.67;100.00
74218;BME280;62579;47.288;18.646;2024-03-02T07:18:53;99325.31;;;8.73;100.00
74218;BME280;62579;47.288;18.646;2024-03-02T07:21:20;99323.34;;;8.74;100.00
74218;BME280;62579;47.288;18.646;2024-03-02T07:23:47;99327.50;;;8.80;100.00
74218;BME280;62579;47.288;18.646;2024-03-02T07:26:13;99323.81;;;8.78;100.00
74218;BME280;62579;47.288;18.646;2024-03-02T07:28:38;99320.88;;;8.76;100.00
74218;BME280;62579;47.288;18.646;2024-03-02T07:31:04;99319.62;;;8.77;100.00
74218;BME280;62579;47.288;18.646;2024-03-02T07:33:30;99317.63;;;8.83;100.00
74218;BME280;62579;47.288;18.646;2024-03-02T07:35:55;99319.59;;;8.82;100.00
74218;BME280;62579;47.288;18.646;2024-03-02T07:38:21;99319.34;;;8.91;100.00
74218;BME280;62579;47.288;18.646;2024-03-02T07:40:50;99316.41;;;8.89;100.00
74218;BME280;62579;47.288;18.646;2024-03-02T07:43:17;99324.06;;;8.80;100.00
74218;BME280;62579;47.288;18.646;2024-03-02T07:45:42;99323.28;;;8.90;100.00
74218;BME280;62579;47.288;18.646;2024-03-02T07:48:08;99331.44;;;8.85;100.00
74218;BME280;62579;47.288;18.646;2024-03-02T07:50:33;99328.47;;;8.94;100.00
74218;BME280;62579;47.288;18.646;2024-03-02T07:53:00;99326.97;;;8.93;100.00
74218;BME280;62579;47.288;18.646;2024-03-02T07:55:26;99332.19;;;8.91;100.00
74218;BME280;62579;47.288;18.646;2024-03-02T07:57:51;99338.13;;;8.89;100.00
74218;BME280;62579;47.288;18.646;2024-03-02T08:00:17;99336.63;;;8.88;100.00
74218;BME280;62579;47.288;18.646;2024-03-02T08:02:42;99332.69;;;8.84;100.00
74218;BME280;62579;47.288;18.646;2024-03-02T08:05:08;99339.31;;;8.94;100.00
74218;BME280;62579;47.288;18.646;2024-03-02T08:07:34;99340.31;;;8.91;100.00
74218;BME280;62579;47.288;18.646;2024-03-02T08:09:59;99341.28;;;8.93;100.00
74218;BME280;62579;47.288;18.646;2024-03-02T08:12:24;99346.47;;;9.02;100.00
74218;BME280;62579;47.288;18.646;2024-03-02T08:14:50;99345.00;;;8.96;100.00
74218;BME280;62579;47.288;18.646;2024-03-02T08:17:15;99346.47;;;8.97;100.00
74218;BME280;62579;47.288;18.646;2024-03-02T08:19:41;99342.03;;;8.99;100.00
74218;BME280;62579;47.288;18.646;2024-03-02T08:22:06;99345.00;;;8.85;100.00
74218;BME280;62579;47.288;18.646;2024-03-02T08:24:32;99345.72;;;8.96;100.00
74218;BME280;62579;47.288;18.646;2024-03-02T08:26:59;99341.50;;;9.06;100.00
74218;BME280;62579;47.288;18.646;2024-03-02T08:29:24;99340.28;;;9.07;100.00
74218;BME280;62579;47.288;18.646;2024-03-02T08:31:50;99350.91;;;9.11;100.00
74218;BME280;62579;47.288;18.646;2024-03-02T08:34:15;99344.97;;;9.01;100.00
74218;BME280;62579;47.288;18.646;2024-03-02T08:36:41;99346.25;;;8.95;100.00
74218;BME280;62579;47.288;18.646;2024-03-02T08:39:07;99351.66;;;8.95;100.00
74218;BME280;62579;47.288;18.646;2024-03-02T08:41:41;99350.16;;;9.05;100.00
74218;BME280;62579;47.288;18.646;2024-03-02T08:44:07;99345.72;;;9.07;100.00
74218;BME280;62579;47.288;18.646;2024-03-02T08:46:32;99348.94;;;9.00;100.00
74218;BME280;62579;47.288;18.646;2024-03-02T08:48:57;99349.16;;;9.08;100.00
74218;BME280;62579;47.288;18.646;2024-03-02T08:51:23;99345.91;;;9.21;100.00
74218;BME280;62579;47.288;18.646;2024-03-02T08:53:48;99338.75;;;9.23;100.00
74218;BME280;62579;47.288;18.646;2024-03-02T08:56:13;99347.19;;;9.20;100.00
74218;BME280;62579;47.288;18.646;2024-03-02T08:58:41;99345.19;;;9.15;100.00
74218;BME280;62579;47.288;18.646;2024-03-02T09:01:06;99345.94;;;9.15;100.00
74218;BME280;62579;47.288;18.646;2024-03-02T09:03:33;99344.41;;;9.31;100.00
74218;BME280;62579;47.288;18.646;2024-03-02T09:05:59;99353.06;;;9.24;100.00
74218;BME280;62579;47.288;18.646;2024-03-02T09:08:24;99346.91;;;9.23;100.00
74218;BME280;62579;47.288;18.646;2024-03-02T09:10:49;99350.88;;;9.22;100.00
74218;BME280;62579;47.288;18.646;2024-03-02T09:13:15;99348.62;;;9.21;100.00
74218;BME280;62579;47.288;18.646;2024-03-02T09:15:41;99355.31;;;9.20;100.00
74218;BME280;62579;47.288;18.646;2024-03-02T09:18:07;99351.09;;;9.30;100.00
74218;BME280;62579;47.288;18.646;2024-03-02T09:20:32;99355.53;;;9.27;100.00
74218;BME280;62579;47.288;18.646;2024-03-02T09:22:58;99352.81;;;9.33;100.00
74218;BME280;62579;47.288;18.646;2024-03-02T09:25:23;99356.72;;;9.43;100.00
74218;BME280;62579;47.288;18.646;2024-03-02T09:27:48;99354.00;;;9.43;100.00
74218;BME280;62579;47.288;18.646;2024-03-02T09:30:14;99357.47;;;9.43;100.00
74218;BME280;62579;47.288;18.646;2024-03-02T09:32:39;99353.22;;;9.48;100.00
74218;BME280;62579;47.288;18.646;2024-03-02T09:35:05;99351.81;;;9.36;100.00
74218;BME280;62579;47.288;18.646;2024-03-02T09:37:30;99360.91;;;9.44;100.00
74218;BME280;62579;47.288;18.646;2024-03-02T09:39:56;99359.38;;;9.54;100.00
74218;BME280;62579;47.288;18.646;2024-03-02T09:42:21;99367.03;;;9.50;100.00
74218;BME280;62579;47.288;18.646;2024-03-02T09:44:47;99365.09;;;9.45;100.00
74218;BME280;62579;47.288;18.646;2024-03-02T09:47:13;99360.37;;;9.51;100.00
74218;BME280;62579;47.288;18.646;2024-03-02T09:49:39;99357.91;;;9.53;100.00
74218;BME280;62579;47.288;18.646;2024-03-02T09:52:05;99356.16;;;9.55;100.00
74218;BME280;62579;47.288;18.646;2024-03-02T09:54:32;99364.31;;;9.55;100.00
74218;BME280;62579;47.288;18.646;2024-03-02T09:56:57;99352.22;;;9.51;100.00
74218;BME280;62579;47.288;18.646;2024-03-02T09:59:22;99354.91;;;9.62;100.00
74218;BME280;62579;47.288;18.646;2024-03-02T10:01:59;99354.69;;;9.60;100.00
74218;BME280;62579;47.288;18.646;2024-03-02T10:04:30;99357.66;;;9.56;100.00
74218;BME280;62579;47.288;18.646;2024-03-02T10:07:19;99352.47;;;9.53;100.00
74218;BME280;62579;47.288;18.646;2024-03-02T10:09:46;99355.47;;;9.44;100.00
74218;BME280;62579;47.288;18.646;2024-03-02T10:12:14;99357.16;;;9.52;100.00
74218;BME280;62579;47.288;18.646;2024-03-02T10:14:39;99359.38;;;9.54;100.00
74218;BME280;62579;47.288;18.646;2024-03-02T10:17:08;99348.22;;;9.63;100.00
74218;BME280;62579;47.288;18.646;2024-03-02T10:19:34;99354.63;;;9.65;100.00
74218;BME280;62579;47.288;18.646;2024-03-02T10:22:06;99349.19;;;9.65;100.00
74218;BME280;62579;47.288;18.646;2024-03-02T10:27:07;99349.97;;;9.55;100.00
74218;BME280;62579;47.288;18.646;2024-03-02T10:29:33;99350.63;;;9.78;100.00
74218;BME280;62579;47.288;18.646;2024-03-02T10:32:02;99347.16;;;9.77;100.00
74218;BME280;62579;47.288;18.646;2024-03-02T10:34:27;99348.44;;;9.76;100.00
74218;BME280;62579;47.288;18.646;2024-03-02T10:36:54;99348.16;;;9.74;100.00
74218;BME280;62579;47.288;18.646;2024-03-02T10:39:20;99339.31;;;9.68;100.00
74218;BME280;62579;47.288;18.646;2024-03-02T10:41:49;99343.75;;;9.65;100.00
74218;BME280;62579;47.288;18.646;2024-03-02T10:44:15;99342.28;;;9.64;100.00
74218;BME280;62579;47.288;18.646;2024-03-02T10:46:43;99338.03;;;9.75;100.00
74218;BME280;62579;47.288;18.646;2024-03-02T10:49:09;99344.25;;;9.70;100.00
74218;BME280;62579;47.288;18.646;2024-03-02T10:51:35;99343.25;;;9.73;100.00
74218;BME280;62579;47.288;18.646;2024-03-02T10:54:02;99341.97;;;9.79;100.00
74218;BME280;62579;47.288;18.646;2024-03-02T10:56:33;99343.47;;;9.75;100.00
74218;BME280;62579;47.288;18.646;2024-03-02T11:01:47;99347.63;;;9.87;100.00
74218;BME280;62579;47.288;18.646;2024-03-02T11:04:12;99340.19;;;9.87;100.00
74218;BME280;62579;47.288;18.646;2024-03-02T11:06:52;99346.16;;;9.80;100.00
74218;BME280;62579;47.288;18.646;2024-03-02T11:09:21;99333.06;;;9.84;100.00
74218;BME280;62579;47.288;18.646;2024-03-02T11:12:09;99342.72;;;9.80;100.00
74218;BME280;62579;47.288;18.646;2024-03-02T11:14:40;99336.97;;;9.89;100.00
74218;BME280;62579;47.288;18.646;2024-03-02T11:17:08;99331.00;;;9.96;100.00
74218;BME280;62579;47.288;18.646;2024-03-02T11:19:35;99335.78;;;9.84;100.00
74218;BME280;62579;47.288;18.646;2024-03-02T11:22:02;99334.06;;;9.81;100.00
74218;BME280;62579;47.288;18.646;2024-03-02T11:24:29;99333.75;;;9.90;100.00
74218;BME280;62579;47.288;18.646;2024-03-02T11:26:59;99332.72;;;9.99;100.00
74218;BME280;62579;47.288;18.646;2024-03-02T11:32:13;99329.50;;;10.00;100.00
74218;BME280;62579;47.288;18.646;2024-03-02T11:34:42;99326.50;;;10.04;100.00
74218;BME280;62579;47.288;18.646;2024-03-02T11:37:12;99329.97;;;10.04;100.00
74218;BME280;62579;47.288;18.646;2024-03-02T11:39:39;99329.44;;;10.06;100.00
74218;BME280;62579;47.288;18.646;2024-03-02T11:42:08;99320.88;;;9.96;100.00
74218;BME280;62579;47.288;18.646;2024-03-02T11:44:37;99329.19;;;10.09;100.00
74218;BME280;62579;47.288;18.646;2024-03-02T11:47:07;99325.63;;;10.25;100.00
74218;BME280;62579;47.288;18.646;2024-03-02T11:49:46;99323.75;;;10.45;100.00
74218;BME280;62579;47.288;18.646;2024-03-02T11:52:14;99322.13;;;10.31;100.00
74218;BME280;62579;47.288;18.646;2024-03-02T11:54:42;99322.94;;;10.20;100.00
74218;BME280;62579;47.288;18.646;2024-03-02T11:57:12;99322.75;;;10.12;100.00
74218;BME280;62579;47.288;18.646;2024-03-02T11:59:38;99325.97;;;10.11;100.00
74218;BME280;62579;47.288;18.646;2024-03-02T12:02:03;99327.47;;;10.06;100.00
74218;BME280;62579;47.288;18.646;2024-03-02T12:04:29;99322.34;;;9.97;100.00
74218;BME280;62579;47.288;18.646;2024-03-02T12:07:03;99321.34;;;10.00;100.00
74218;BME280;62579;47.288;18.646;2024-03-02T12:09:29;99317.06;;;10.10;100.00
74218;BME280;62579;47.288;18.646;2024-03-02T12:14:27;99321.00;;;10.15;100.00
74218;BME280;62579;47.288;18.646;2024-03-02T12:16:54;99332.06;;;10.22;100.00
74218;BME280;62579;47.288;18.646;2024-03-02T12:19:20;99329.13;;;10.20;100.00
74218;BME280;62579;47.288;18.646;2024-03-02T12:21:46;99327.19;;;10.15;100.00
74218;BME280;62579;47.288;18.646;2024-03-02T12:24:11;99329.66;;;10.19;100.00
74218;BME280;62579;47.288;18.646;2024-03-02T12:26:37;99323.75;;;10.09;100.00
74218;BME280;62579;47.288;18.646;2024-03-02T12:29:02;99334.38;;;10.07;100.00
74218;BME280;62579;47.288;18.646;2024-03-02T12:31:28;99327.19;;;10.15;100.00
74218;BME280;62579;47.288;18.646;2024-03-02T12:33:54;99335.34;;;10.15;100.00
74218;BME280;62579;47.288;18.646;2024-03-02T12:36:19;99331.59;;;10.24;100.00
74218;BME280;62579;47.288;18.646;2024-03-02T12:38:44;99335.56;;;10.17;100.00
74218;BME280;62579;47.288;18.646;2024-03-02T12:41:14;99337.06;;;10.18;100.00
74218;BME280;62579;47.288;18.646;2024-03-02T12:43:40;99341.47;;;10.27;100.00
74218;BME280;62579;47.288;18.646;2024-03-02T12:46:05;99334.78;;;10.22;100.00
74218;BME280;62579;47.288;18.646;2024-03-02T12:48:31;99340.22;;;10.22;100.00
74218;BME280;62579;47.288;18.646;2024-03-02T12:50:56;99337.25;;;10.26;100.00
74218;BME280;62579;47.288;18.646;2024-03-02T12:53:22;99346.19;;;10.21;100.00
74218;BME280;62579;47.288;18.646;2024-03-02T12:55:48;99338.84;;;10.05;100.00
74218;BME280;62579;47.288;18.646;2024-03-02T12:58:20;99345.81;;;10.00;100.00
74218;BME280;62579;47.288;18.646;2024-03-02T13:00:48;99341.09;;;10.01;100.00